createdAt,value
2018-05-09T00:01:23.224Z,101243.64
2018-05-09T00:03:50.853Z,101244.44
2018-05-09T00:06:18.514Z,101245.30
2018-05-09T00:08:46.150Z,101244.41
2018-05-09T00:11:13.763Z,101247.00
2018-05-09T00:13:41.482Z,101247.84
2018-05-09T00:16:09.112Z,101249.16
2018-05-09T00:18:36.746Z,101246.09
2018-05-09T00:21:04.353Z,101248.71
2018-05-09T00:23:31.990Z,101249.12
2018-05-09T00:25:59.686Z,101250.84
2018-05-09T00:28:27.355Z,101245.58
2018-05-09T00:30:55.023Z,101253.80
2018-05-09T00:33:22.682Z,101247.68
2018-05-09T00:35:50.322Z,101247.63
2018-05-09T00:38:18.012Z,101236.31
2018-05-09T00:40:45.670Z,101234.97
2018-05-09T00:43:13.330Z,101241.47
2018-05-09T00:45:40.987Z,101240.15
2018-05-09T00:48:08.594Z,101236.62
2018-05-09T00:50:36.315Z,101237.03
2018-05-09T00:53:03.978Z,101238.72
2018-05-09T00:55:31.615Z,101235.20
2018-05-09T00:57:59.312Z,101232.95
2018-05-09T01:00:27.076Z,101224.22
2018-05-09T01:02:54.740Z,101224.17
2018-05-09T01:05:22.407Z,101222.38
2018-05-09T01:07:50.064Z,101223.66
2018-05-09T01:10:18.019Z,101225.81
2018-05-09T01:12:45.694Z,101224.05
2018-05-09T01:15:13.326Z,101223.58
2018-05-09T01:17:41.013Z,101220.98
2018-05-09T01:20:08.659Z,101220.52
2018-05-09T01:22:36.274Z,101220.52
2018-05-09T01:25:03.912Z,101224.41
2018-05-09T01:27:31.571Z,101217.86
2018-05-09T01:29:59.227Z,101217.40
2018-05-09T01:32:26.892Z,101212.63
2018-05-09T01:34:54.531Z,101215.20
2018-05-09T01:37:22.211Z,101219.08
2018-05-09T01:39:49.866Z,101219.05
2018-05-09T01:42:17.510Z,101215.15
2018-05-09T01:44:45.203Z,101214.25
2018-05-09T01:47:12.843Z,101216.42
2018-05-09T01:49:40.528Z,101217.29
2018-05-09T01:52:08.167Z,101210.31
2018-05-09T01:54:35.794Z,101207.71
2018-05-09T01:57:03.519Z,101209.81
2018-05-09T01:59:31.139Z,101205.85
2018-05-09T02:01:58.779Z,101206.69
2018-05-09T02:04:26.399Z,101209.27
2018-05-09T02:06:54.027Z,101201.42
2018-05-09T02:09:21.641Z,101207.04
2018-05-09T02:11:49.280Z,101203.50
2018-05-09T02:14:16.904Z,101205.21
2018-05-09T02:16:44.539Z,101209.98
2018-05-09T02:19:12.191Z,101212.16
2018-05-09T02:21:39.830Z,101216.06
2018-05-09T02:24:07.526Z,101214.33
2018-05-09T02:26:35.098Z,101212.56
2018-05-09T02:29:02.710Z,101210.80
2018-05-09T02:31:30.379Z,101207.72
2018-05-09T02:33:57.999Z,101208.56
2018-05-09T02:36:25.644Z,101205.92
2018-05-09T02:38:53.353Z,101204.56
2018-05-09T02:41:20.928Z,101200.56
2018-05-09T02:43:48.776Z,101201.36
2018-05-09T02:46:16.266Z,101201.72
2018-05-09T02:48:43.874Z,101200.36
2018-05-09T02:51:11.497Z,101197.28
2018-05-09T02:53:39.242Z,101205.06
2018-05-09T02:56:06.850Z,101203.69
2018-05-09T02:58:34.565Z,101203.65
2018-05-09T03:01:02.226Z,101200.18
2018-05-09T03:03:29.890Z,101202.31
2018-05-09T03:05:57.507Z,101203.58
2018-05-09T03:08:25.216Z,101198.81
2018-05-09T03:10:52.840Z,101204.02
2018-05-09T03:13:20.483Z,101197.47
2018-05-09T03:15:48.104Z,101206.14
2018-05-09T03:18:15.862Z,101202.24
2018-05-09T03:20:43.527Z,101201.81
2018-05-09T03:23:11.167Z,101200.94
2018-05-09T03:25:38.774Z,101201.38
2018-05-09T03:28:06.412Z,101203.11
2018-05-09T03:30:34.076Z,101208.31
2018-05-09T03:33:01.721Z,101201.81
2018-05-09T03:35:29.390Z,101201.38
2018-05-09T03:37:57.031Z,101200.08
2018-05-09T03:40:24.651Z,101206.58
2018-05-09T03:42:52.291Z,101203.98
2018-05-09T03:45:19.948Z,101206.18
2018-05-09T03:47:47.608Z,101206.61
2018-05-09T03:50:15.236Z,101209.65
2018-05-09T03:52:42.930Z,101208.35
2018-05-09T03:55:10.552Z,101202.31
2018-05-09T03:57:38.259Z,101200.18
2018-05-09T04:00:05.924Z,101194.11
2018-05-09T04:02:45.558Z,101192.41
2018-05-09T04:05:24.838Z,101189.48
2018-05-09T04:08:04.343Z,101186.61
2018-05-09T04:10:32.005Z,101184.59
2018-05-09T04:12:59.626Z,101186.61
2018-05-09T04:15:28.882Z,101182.55
2018-05-09T04:17:56.527Z,101184.01
2018-05-09T04:20:24.167Z,101182.87
2018-05-09T04:22:51.784Z,101181.31
2018-05-09T04:25:19.418Z,101184.89
2018-05-09T04:27:47.066Z,101179.34
2018-05-09T04:30:14.740Z,101183.73
2018-05-09T04:32:42.404Z,101185.52
2018-05-09T04:35:10.048Z,101176.42
2018-05-09T04:37:37.661Z,101175.16
2018-05-09T04:40:05.308Z,101165.19
2018-05-09T04:42:32.936Z,101167.78
2018-05-09T04:45:00.575Z,101173.45
2018-05-09T04:47:28.308Z,101169.14
2018-05-09T04:49:55.928Z,101174.80
2018-05-09T04:52:23.547Z,101175.27
2018-05-09T04:54:51.251Z,101174.39
2018-05-09T04:57:18.867Z,101168.73
2018-05-09T04:59:46.584Z,101174.83
2018-05-09T05:02:14.155Z,101175.27
2018-05-09T05:04:41.823Z,101170.05
2018-05-09T05:07:09.569Z,101176.13
2018-05-09T05:09:37.231Z,101173.13
2018-05-09T05:12:04.902Z,101174.88
2018-05-09T05:14:32.539Z,101179.28
2018-05-09T05:17:00.212Z,101179.72
2018-05-09T05:19:27.883Z,101182.81
2018-05-09T05:21:55.523Z,101180.67
2018-05-09T05:24:23.206Z,101190.70
2018-05-09T05:26:50.871Z,101190.75
2018-05-09T05:29:18.491Z,101190.33
2018-05-09T05:31:46.197Z,101187.34
2018-05-09T05:34:13.851Z,101189.53
2018-05-09T05:36:41.491Z,101183.45
2018-05-09T05:39:09.174Z,101185.23
2018-05-09T05:41:36.816Z,101184.36
2018-05-09T05:44:04.503Z,101186.17
2018-05-09T05:46:32.894Z,101187.47
2018-05-09T05:49:00.557Z,101182.69
2018-05-09T05:51:28.190Z,101183.95
2018-05-09T05:53:55.867Z,101178.73
2018-05-09T05:56:23.503Z,101185.25
2018-05-09T05:58:51.114Z,101180.44
2018-05-09T06:01:18.864Z,101184.33
2018-05-09T06:03:46.474Z,101184.28
2018-05-09T06:06:14.190Z,101184.71
2018-05-09T06:08:41.852Z,101186.41
2018-05-09T06:11:09.487Z,101189.37
2018-05-09T06:13:37.108Z,101189.77
2018-05-09T06:16:04.751Z,101190.13
2018-05-09T06:18:32.358Z,101193.09
2018-05-09T06:20:59.995Z,101194.30
2018-05-09T06:23:27.615Z,101188.09
2018-05-09T06:25:55.284Z,101186.25
2018-05-09T06:28:22.903Z,101188.75
2018-05-09T06:30:50.653Z,101189.52
2018-05-09T06:33:18.274Z,101188.50
2018-05-09T06:35:45.883Z,101191.85
2018-05-09T06:38:13.510Z,101196.09
2018-05-09T06:40:41.124Z,101190.67
2018-05-09T06:43:08.762Z,101193.13
2018-05-09T06:45:36.483Z,101190.33
2018-05-09T06:48:04.137Z,101192.34
2018-05-09T06:50:31.752Z,101191.28
2018-05-09T06:52:59.391Z,101192.37
2018-05-09T06:55:27.031Z,101192.16
2018-05-09T06:57:54.671Z,101190.66
2018-05-09T07:00:22.280Z,101182.97
2018-05-09T07:02:50.017Z,101179.68
2018-05-09T07:05:17.627Z,101180.72
2018-05-09T07:07:45.263Z,101173.42
2018-05-09T07:10:12.880Z,101178.42
2018-05-09T07:12:40.551Z,101179.52
2018-05-09T07:15:08.179Z,101181.88
2018-05-09T07:17:35.814Z,101179.82
2018-05-09T07:20:03.426Z,101181.27
2018-05-09T07:22:31.054Z,101181.41
2018-05-09T07:24:58.776Z,101180.24
2018-05-09T07:27:26.439Z,101176.88
2018-05-09T07:29:54.103Z,101179.16
2018-05-09T07:32:21.748Z,101177.52
2018-05-09T07:34:49.423Z,101172.80
2018-05-09T07:37:17.081Z,101166.77
2018-05-09T07:39:44.742Z,101169.52
2018-05-09T07:42:12.483Z,101163.55
2018-05-09T07:44:40.077Z,101167.70
2018-05-09T07:47:07.679Z,101163.10
2018-05-09T07:49:35.320Z,101169.77
2018-05-09T07:52:02.991Z,101165.47
2018-05-09T07:54:30.731Z,101170.44
2018-05-09T07:56:58.389Z,101170.97
2018-05-09T07:59:26.028Z,101174.65
2018-05-09T08:01:53.719Z,101165.13
2018-05-09T08:04:21.352Z,101172.30
2018-05-09T08:06:49.035Z,101167.59
2018-05-09T08:09:17.416Z,101164.62
2018-05-09T08:11:45.028Z,101167.85
2018-05-09T08:14:12.672Z,101165.28
2018-05-09T08:16:40.279Z,101156.50
2018-05-09T08:19:08.262Z,101155.70
2018-05-09T08:21:35.934Z,101157.12
2018-05-09T08:24:03.563Z,101164.19
2018-05-09T08:26:31.268Z,101159.75
2018-05-09T08:28:58.903Z,101163.38
2018-05-09T08:31:26.576Z,101163.41
2018-05-09T08:33:54.474Z,101168.86
2018-05-09T08:36:22.083Z,101168.53
2018-05-09T08:38:49.724Z,101166.06
2018-05-09T08:41:17.339Z,101162.70
2018-05-09T08:43:45.094Z,101163.30
2018-05-09T08:46:12.641Z,101162.58
2018-05-09T08:48:40.277Z,101168.02
2018-05-09T08:51:07.880Z,101154.92
2018-05-09T08:53:35.702Z,101151.06
2018-05-09T08:56:03.307Z,101157.88
2018-05-09T08:58:30.980Z,101143.52
2018-05-09T09:00:58.610Z,101149.33
2018-05-09T09:03:26.223Z,101151.66
2018-05-09T09:05:54.057Z,101150.36
2018-05-09T09:08:21.822Z,101152.60
2018-05-09T09:10:49.529Z,101153.48
2018-05-09T09:13:17.099Z,101160.23
2018-05-09T09:15:44.764Z,101158.18
2018-05-09T09:18:12.375Z,101154.38
2018-05-09T09:20:40.013Z,101155.52
2018-05-09T09:23:07.617Z,101155.33
2018-05-09T09:25:35.243Z,101151.63
2018-05-09T09:28:02.983Z,101153.23
2018-05-09T09:30:30.682Z,101135.80
2018-05-09T09:32:58.294Z,101143.16
2018-05-09T09:35:26.015Z,101144.77
2018-05-09T09:37:53.635Z,101139.27
2018-05-09T09:40:21.271Z,101139.44
2018-05-09T09:42:48.900Z,101144.98
2018-05-09T09:45:16.531Z,101135.91
2018-05-09T09:47:44.139Z,101135.24
2018-05-09T09:50:11.774Z,101130.14
2018-05-09T09:52:39.440Z,101121.51
2018-05-09T09:55:07.075Z,101116.74
2018-05-09T09:57:34.700Z,101111.16
2018-05-09T10:00:02.343Z,101114.03
2018-05-09T10:02:29.955Z,101115.16
2018-05-09T10:04:57.656Z,101126.46
2018-05-09T10:07:25.323Z,101121.41
2018-05-09T10:09:52.935Z,101119.77
2018-05-09T10:12:20.566Z,101126.94
2018-05-09T10:14:48.183Z,101119.03
2018-05-09T10:17:15.813Z,101120.03
2018-05-09T10:19:43.427Z,101115.37
2018-05-09T10:22:11.067Z,101107.70
2018-05-09T10:24:38.678Z,101105.36
2018-05-09T10:27:06.418Z,101104.28
2018-05-09T10:29:34.075Z,101101.89
2018-05-09T10:32:01.713Z,101096.81
2018-05-09T10:34:29.336Z,101093.06
2018-05-09T10:36:57.057Z,101093.28
2018-05-09T10:39:24.728Z,101099.67
2018-05-09T10:41:52.386Z,101096.83
2018-05-09T10:44:19.994Z,101100.23
2018-05-09T10:46:47.627Z,101093.89
2018-05-09T10:49:15.234Z,101083.97
2018-05-09T10:51:42.930Z,101084.23
2018-05-09T10:54:10.545Z,101089.38
2018-05-09T10:56:38.187Z,101078.98
2018-05-09T10:59:05.818Z,101084.56
2018-05-09T11:01:33.479Z,101076.92
2018-05-09T11:04:01.198Z,101073.47
2018-05-09T11:06:28.904Z,101068.45
2018-05-09T11:08:56.570Z,101062.47
2018-05-09T11:11:24.203Z,101053.78
2018-05-09T11:13:51.899Z,101060.63
2018-05-09T11:16:19.548Z,101064.41
2018-05-09T11:18:47.220Z,101061.98
2018-05-09T11:21:14.983Z,101064.42
2018-05-09T11:23:42.655Z,101065.16
2018-05-09T11:26:10.273Z,101059.27
2018-05-09T11:28:37.906Z,101057.83
2018-05-09T11:31:05.539Z,101051.41
2018-05-09T11:33:33.190Z,101049.53
2018-05-09T11:36:00.863Z,101046.69
2018-05-09T11:38:28.531Z,101046.14
2018-05-09T11:40:56.140Z,101043.17
2018-05-09T11:43:23.775Z,101047.46
2018-05-09T11:45:51.416Z,101046.50
2018-05-09T11:48:19.055Z,101045.59
2018-05-09T11:50:46.726Z,101043.34
2018-05-09T11:53:14.490Z,101044.84
2018-05-09T11:55:42.155Z,101046.26
2018-05-09T11:58:09.802Z,101040.34
2018-05-09T12:00:37.487Z,101029.17
2018-05-09T12:03:05.153Z,101040.78
2018-05-09T12:05:32.763Z,101036.77
2018-05-09T12:08:00.391Z,101036.77
2018-05-09T12:10:28.023Z,101038.41
2018-05-09T12:12:55.695Z,101047.61
2018-05-09T12:15:23.359Z,101039.02
2018-05-09T12:17:51.018Z,101033.25
2018-05-09T12:20:18.686Z,101026.45
2018-05-09T12:22:46.314Z,101022.24
2018-05-09T12:25:13.918Z,101021.16
2018-05-09T12:27:41.552Z,101014.66
2018-05-09T12:30:09.236Z,101018.33
2018-05-09T12:32:36.991Z,101005.95
2018-05-09T12:35:04.653Z,101019.67
2018-05-09T12:37:33.188Z,101003.27
2018-05-09T12:40:00.810Z,101002.42
2018-05-09T12:42:28.531Z,101003.70
2018-05-09T12:44:56.325Z,100988.94
2018-05-09T12:47:23.985Z,100993.27
2018-05-09T12:49:51.623Z,100987.42
2018-05-09T12:52:19.310Z,100980.69
2018-05-09T12:54:46.935Z,100982.13
2018-05-09T12:57:14.548Z,100981.87
2018-05-09T12:59:42.201Z,100985.19
2018-05-09T13:02:09.815Z,100971.33
2018-05-09T13:04:37.522Z,100978.77
2018-05-09T13:07:05.135Z,100973.05
2018-05-09T13:09:32.855Z,100973.05
2018-05-09T13:12:00.496Z,100967.37
2018-05-09T13:14:28.122Z,100964.70
2018-05-09T13:16:55.732Z,100968.14
2018-05-09T13:19:23.395Z,100967.16
2018-05-09T13:21:51.062Z,100963.17
2018-05-09T13:24:18.700Z,100961.22
2018-05-09T13:26:46.308Z,100947.92
2018-05-09T13:29:13.946Z,100949.26
2018-05-09T13:31:41.653Z,100945.78
2018-05-09T13:34:09.232Z,100937.58
2018-05-09T13:36:36.838Z,100943.84
2018-05-09T13:39:04.468Z,100940.62
2018-05-09T13:41:32.147Z,100939.16
2018-05-09T13:43:59.747Z,100930.42
2018-05-09T13:46:27.444Z,100935.50
2018-05-09T13:48:55.015Z,100937.49
2018-05-09T13:51:22.801Z,100927.92
2018-05-09T13:53:50.519Z,100930.95
2018-05-09T13:56:18.067Z,100926.40
2018-05-09T13:58:45.679Z,100920.06
2018-05-09T14:01:13.354Z,100923.24
2018-05-09T14:03:40.976Z,100919.21
2018-05-09T14:06:08.616Z,100911.70
2018-05-09T14:08:36.260Z,100905.45
2018-05-09T14:11:03.896Z,100910.71
2018-05-09T14:13:31.513Z,100902.27
2018-05-09T14:15:59.147Z,100915.34
2018-05-09T14:18:26.782Z,100907.45
2018-05-09T14:20:54.421Z,100901.48
2018-05-09T14:23:22.039Z,100903.44
2018-05-09T14:25:49.870Z,100906.80
2018-05-09T14:28:17.478Z,100901.25
2018-05-09T14:30:45.195Z,100895.70
2018-05-09T14:33:12.863Z,100897.49
2018-05-09T14:35:40.495Z,100896.62
2018-05-09T14:38:08.190Z,100901.98
2018-05-09T14:40:35.878Z,100884.73
2018-05-09T14:43:03.467Z,100886.48
2018-05-09T14:45:31.113Z,100892.85
2018-05-09T14:47:58.845Z,100890.66
2018-05-09T14:50:26.479Z,100890.24
2018-05-09T14:52:54.097Z,100883.45
2018-05-09T14:55:21.828Z,100884.87
2018-05-09T14:57:49.448Z,100882.93
2018-05-09T15:00:17.091Z,100877.13
2018-05-09T15:02:44.820Z,100878.41
2018-05-09T15:05:12.426Z,100865.92
2018-05-09T15:07:40.059Z,100873.28
2018-05-09T15:10:07.672Z,100873.59
2018-05-09T15:12:35.302Z,100868.20
2018-05-09T15:15:02.914Z,100872.48
2018-05-09T15:17:30.546Z,100862.97
2018-05-09T15:19:58.238Z,100866.18
2018-05-09T15:22:25.870Z,100869.77
2018-05-09T15:24:53.475Z,100874.42
2018-05-09T15:27:21.113Z,100863.52
2018-05-09T15:29:48.728Z,100864.13
2018-05-09T15:32:16.358Z,100859.99
2018-05-09T15:34:43.974Z,100861.62
2018-05-09T15:37:11.681Z,100856.59
2018-05-09T15:39:39.344Z,100852.09
2018-05-09T15:42:06.982Z,100871.91
2018-05-09T15:44:34.603Z,100856.28
2018-05-09T15:47:03.020Z,100851.36
2018-05-09T15:49:30.639Z,100851.27
2018-05-09T15:51:58.371Z,100843.58
2018-05-09T15:54:25.987Z,100837.61
2018-05-09T15:56:53.624Z,100844.08
2018-05-09T15:59:21.238Z,100841.21
2018-05-09T16:01:48.920Z,100835.33
2018-05-09T16:04:16.564Z,100835.61
2018-05-09T16:06:44.233Z,100839.78
2018-05-09T16:09:11.855Z,100839.05
2018-05-09T16:11:39.597Z,100838.69
2018-05-09T16:14:07.259Z,100838.00
2018-05-09T16:16:34.851Z,100842.64
2018-05-09T16:19:02.488Z,100836.63
2018-05-09T16:21:30.099Z,100834.55
2018-05-09T16:23:57.783Z,100848.88
2018-05-09T16:26:25.444Z,100832.66
2018-05-09T16:28:53.107Z,100845.91
2018-05-09T16:31:20.714Z,100845.05
2018-05-09T16:33:48.428Z,100841.03
2018-05-09T16:36:16.103Z,100842.15
2018-05-09T16:38:43.703Z,100840.89
2018-05-09T16:41:11.322Z,100840.63
2018-05-09T16:43:38.970Z,100843.56
2018-05-09T16:46:06.582Z,100847.02
2018-05-09T16:48:34.221Z,100847.14
2018-05-09T16:51:01.848Z,100838.48
2018-05-09T16:53:29.519Z,100841.50
2018-05-09T16:55:57.183Z,100838.12
2018-05-09T16:58:24.824Z,100833.52
2018-05-09T17:00:52.439Z,100835.66
2018-05-09T17:03:20.075Z,100832.09
2018-05-09T17:05:47.691Z,100820.80
2018-05-09T17:08:15.391Z,100817.47
2018-05-09T17:10:43.051Z,100818.88
2018-05-09T17:13:10.744Z,100818.50
2018-05-09T17:15:38.347Z,100819.83
2018-05-09T17:18:05.983Z,100820.33
2018-05-09T17:20:33.596Z,100818.16
2018-05-09T17:23:01.269Z,100816.82
2018-05-09T17:25:28.919Z,100819.00
2018-05-09T17:27:56.529Z,100824.77
2018-05-09T17:30:24.198Z,100824.32
2018-05-09T17:32:51.811Z,100824.20
2018-05-09T17:35:19.491Z,100823.57
2018-05-09T17:37:47.082Z,100817.58
2018-05-09T17:40:14.718Z,100826.13
2018-05-09T17:42:42.366Z,100825.31
2018-05-09T17:45:09.993Z,100822.09
2018-05-09T17:47:37.700Z,100818.29
2018-05-09T17:50:05.340Z,100819.77
2018-05-09T17:52:32.959Z,100826.98
2018-05-09T17:55:00.605Z,100825.30
2018-05-09T17:57:28.222Z,100831.09
2018-05-09T17:59:55.903Z,100835.94
2018-05-09T18:02:23.549Z,100829.70
2018-05-09T18:04:51.178Z,100826.55
2018-05-09T18:07:18.875Z,100834.05
2018-05-09T18:09:46.503Z,100833.97
2018-05-09T18:12:14.116Z,100833.78
2018-05-09T18:14:41.956Z,100831.38
2018-05-09T18:17:09.532Z,100832.05
2018-05-09T18:19:37.196Z,100832.34
2018-05-09T18:22:04.817Z,100833.91
2018-05-09T18:24:32.468Z,100831.14
2018-05-09T18:27:00.080Z,100835.81
2018-05-09T18:29:27.736Z,100838.27
2018-05-09T18:31:55.343Z,100834.53
2018-05-09T18:34:23.068Z,100831.70
2018-05-09T18:36:50.718Z,100827.48
2018-05-09T18:39:18.492Z,100830.78
2018-05-09T18:41:46.112Z,100828.84
2018-05-09T18:44:13.791Z,100838.34
2018-05-09T18:46:41.482Z,100838.14
2018-05-09T18:49:09.096Z,100834.86
2018-05-09T18:51:36.799Z,100839.07
2018-05-09T18:54:04.496Z,100841.96
2018-05-09T18:56:32.120Z,100843.46
2018-05-09T18:58:59.793Z,100839.31
2018-05-09T19:01:27.440Z,100837.80
2018-05-09T19:03:55.042Z,100838.91
2018-05-09T19:06:22.682Z,100836.03
2018-05-09T19:08:50.299Z,100836.27
2018-05-09T19:11:17.922Z,100839.57
2018-05-09T19:13:45.539Z,100838.48
2018-05-09T19:16:14.021Z,100839.17
2018-05-09T19:18:41.594Z,100839.00
2018-05-09T19:21:09.226Z,100834.30
2018-05-09T19:23:36.835Z,100835.41
2018-05-09T19:26:04.472Z,100833.39
2018-05-09T19:28:32.120Z,100830.94
2018-05-09T19:30:59.744Z,100831.09
2018-05-09T19:33:27.367Z,100831.23
2018-05-09T19:35:55.024Z,100831.41
2018-05-09T19:38:22.686Z,100831.56
2018-05-09T19:40:50.314Z,100829.97
2018-05-09T19:43:18.019Z,100830.97
2018-05-09T19:45:45.646Z,100831.58
2018-05-09T19:48:13.260Z,100828.19
2018-05-09T19:50:40.997Z,100832.75
2018-05-09T19:53:08.667Z,100830.77
2018-05-09T19:55:36.271Z,100827.40
2018-05-09T19:58:03.996Z,100825.36
2018-05-09T20:00:31.622Z,100823.31
2018-05-09T20:02:59.310Z,100820.33
2018-05-09T20:05:26.911Z,100821.70
2018-05-09T20:07:54.627Z,100817.38
2018-05-09T20:10:22.234Z,100816.59
2018-05-09T20:12:49.862Z,100812.78
2018-05-09T20:15:18.342Z,100814.20
2018-05-09T20:17:45.965Z,100809.92
2018-05-09T20:20:13.574Z,100810.94
2018-05-09T20:22:41.230Z,100817.59
2018-05-09T20:25:08.845Z,100813.72
2018-05-09T20:27:36.484Z,100817.31
2018-05-09T20:30:04.094Z,100810.84
2018-05-09T20:32:40.120Z,100820.55
2018-05-09T20:35:07.725Z,100816.30
2018-05-09T20:37:35.390Z,100811.13
2018-05-09T20:40:02.998Z,100806.91
2018-05-09T20:42:30.635Z,100814.00
2018-05-09T20:44:58.247Z,100808.83
2018-05-09T20:47:25.891Z,100816.01
2018-05-09T20:49:53.503Z,100817.43
2018-05-09T20:52:21.135Z,100820.61
2018-05-09T20:54:48.747Z,100822.92
2018-05-09T20:57:16.370Z,100821.27
2018-05-09T20:59:43.978Z,100817.86
2018-05-09T21:02:11.582Z,100818.81
2018-05-09T21:04:39.266Z,100820.21
2018-05-09T21:07:06.875Z,100823.79
2018-05-09T21:09:34.519Z,100816.44
2018-05-09T21:12:08.918Z,100823.11
2018-05-09T21:14:36.565Z,100812.29
2018-05-09T21:17:04.183Z,100814.20
2018-05-09T21:19:31.824Z,100811.69
2018-05-09T21:21:59.444Z,100815.25
2018-05-09T21:24:27.128Z,100810.94
2018-05-09T21:26:54.743Z,100809.19
2018-05-09T21:29:22.378Z,100803.55
2018-05-09T21:31:49.992Z,100811.92
2018-05-09T21:34:17.676Z,100811.08
2018-05-09T21:36:45.278Z,100812.89
2018-05-09T21:39:12.919Z,100809.45
2018-05-09T21:41:40.530Z,100809.49
2018-05-09T21:44:08.167Z,100804.77
2018-05-09T21:46:35.783Z,100805.73
2018-05-09T21:49:03.537Z,100798.39
2018-05-09T21:51:31.780Z,100798.50
2018-05-09T21:53:59.579Z,100804.27
2018-05-09T21:56:27.192Z,100801.73
2018-05-09T21:58:54.821Z,100802.72
2018-05-09T22:01:23.160Z,100796.69
2018-05-09T22:03:50.803Z,100806.84
2018-05-09T22:06:18.410Z,100800.34
2018-05-09T22:08:46.046Z,100795.56
2018-05-09T22:11:13.727Z,100798.24
2018-05-09T22:13:41.407Z,100794.38
2018-05-09T22:16:09.023Z,100792.67
2018-05-09T22:18:36.736Z,100792.27
2018-05-09T22:21:04.376Z,100785.81
2018-05-09T22:23:32.048Z,100783.70
2018-05-09T22:25:59.714Z,100776.78
2018-05-09T22:28:27.366Z,100779.05
2018-05-09T22:30:55.004Z,100777.41
2018-05-09T22:33:22.690Z,100771.77
2018-05-09T22:35:50.362Z,100777.97
2018-05-09T22:38:18.023Z,100772.80
2018-05-09T22:40:45.663Z,100772.44
2018-05-09T22:43:13.351Z,100768.54
2018-05-09T22:45:41.538Z,100770.34
2018-05-09T22:48:09.156Z,100762.48
2018-05-09T22:50:36.806Z,100761.65
2018-05-09T22:53:04.503Z,100758.22
2018-05-09T22:55:32.172Z,100759.17
2018-05-09T22:57:59.787Z,100756.61
2018-05-09T23:00:27.489Z,100764.95
2018-05-09T23:02:55.154Z,100762.84
2018-05-09T23:05:22.824Z,100759.81
2018-05-09T23:07:50.483Z,100759.86
2018-05-09T23:10:18.205Z,100754.21
2018-05-09T23:12:45.809Z,100747.23
2018-05-09T23:15:13.471Z,100748.58
2018-05-09T23:17:41.227Z,100755.17
2018-05-09T23:20:08.901Z,100745.59
2018-05-09T23:22:37.022Z,100753.45
2018-05-09T23:25:04.651Z,100756.56
2018-05-09T23:27:32.263Z,100752.22
2018-05-09T23:29:59.894Z,100746.16
2018-05-09T23:32:27.511Z,100751.89
2018-05-09T23:34:55.115Z,100751.08
2018-05-09T23:37:22.896Z,100751.52
2018-05-09T23:39:50.502Z,100747.16
2018-05-09T23:42:18.136Z,100742.39
2018-05-09T23:44:45.751Z,100738.04
2018-05-09T23:47:13.387Z,100738.94
2018-05-09T23:49:41.042Z,100744.17
2018-05-09T23:52:08.726Z,100744.19
2018-05-09T23:54:36.344Z,100743.30
2018-05-09T23:57:04.047Z,100744.62
2018-05-09T23:59:31.659Z,100734.63
